Rosco Poplar — VRGP5 — position and weather

sailwx.info

Track history (hours):
 
Tides and Currents Weather Stations Pressure Air Temp Water Temp Dewpoint Dewpoint Depression Visibility Wind Speed Wind Dir Waves Ship Positions

Rosco Poplar

Last reported at 2018-Jan-08 04:21 UTC. Time now 2018-Jan-22 22:24 UTC.
Position N 33°39' E 134°55'.
Warning: this ship's position is 14 days out of date.

Length 225 m; draft 7.2 m.

Type: Ship. MMSI: 477743200.

Date/timePositionNaut miles runAvg speedWind from/ knotsBaromVisibWave heightAir tempDewpointWater temp
2018-Jan-08 04:21N 33°39' E 134°55'411.7
2018-Jan-08 04:00N 33°43' E 134°54'611.1
2018-Jan-08 03:30N 33°48' E 134°52'510.4
2018-Jan-08 03:00N 33°53' E 134°49'4 8.5
2018-Jan-08 02:30N 33°53' E 134°44'3 6.3
2018-Jan-08 02:00N 33°52' E 134°41'1 1.7
2018-Jan-08 01:29N 33°52' E 134°40'0 0.0
2018-Jan-08 00:08N 33°52' E 134°40'0 0.3
2018-Jan-07 23:56N 33°52' E 134°40'0 0.1
2018-Jan-07 23:26N 33°52' E 134°40'0 0.0
2018-Jan-07 20:02N 33°52' E 134°40'0 0.6
2018-Jan-07 19:56N 33°52' E 134°40'0 0.0
2018-Jan-07 19:26N 33°52' E 134°40'0 0.0
2018-Jan-07 18:56N 33°52' E 134°40'0 0.1
2018-Jan-07 18:14N 33°52' E 134°40'0 0.1
2018-Jan-07 17:56N 33°52' E 134°40'0 0.0
2018-Jan-07 04:32N 33°52' E 134°40'0 0.1
2018-Jan-07 04:26N 33°52' E 134°40'0 0.1
2018-Jan-07 03:50N 33°52' E 134°40'0 0.0
2018-Jan-07 02:26N 33°52' E 134°40'0 0.0
2018-Jan-07 01:50N 33°52' E 134°40'0 0.0
2018-Jan-07 01:20N 33°52' E 134°40'0 0.0
2018-Jan-07 00:14N 33°52' E 134°40'0 0.0
2018-Jan-06 23:50N 33°52' E 134°40'0 0.0
2018-Jan-06 23:26N 33°52' E 134°40'0 0.0
2018-Jan-06 22:56N 33°52' E 134°40'0 0.0
2018-Jan-06 22:20N 33°52' E 134°40'0 0.0
2018-Jan-06 21:56N 33°52' E 134°40'0 0.0
2018-Jan-06 21:08N 33°52' E 134°40'0 0.1
2018-Jan-06 20:56N 33°52' E 134°40'0 0.1
2018-Jan-06 20:26N 33°52' E 134°40'0 0.1
2018-Jan-06 19:56N 33°52' E 134°40'0 0.1
2018-Jan-06 19:20N 33°52' E 134°40'0 0.0
2018-Jan-06 18:56N 33°52' E 134°40'0 0.1
2018-Jan-06 18:14N 33°52' E 134°40'0 0.1
2018-Jan-06 17:44N 33°52' E 134°40'0 0.1
2018-Jan-06 17:20N 33°52' E 134°40'0 0.0
2018-Jan-06 16:50N 33°52' E 134°40'0 0.0
2018-Jan-06 16:26N 33°52' E 134°40'0 0.1
2018-Jan-06 15:56N 33°52' E 134°40'0 0.1
2018-Jan-06 15:14N 33°52' E 134°40'0 0.1
2018-Jan-06 14:44N 33°52' E 134°40'0 0.2
2018-Jan-06 14:26N 33°52' E 134°40'0 0.0
2018-Jan-06 08:44N 33°52' E 134°40'0 0.0
2018-Jan-06 08:20N 33°52' E 134°40'0 0.0
2018-Jan-06 07:50N 33°52' E 134°40'1 0.0
2018-Jan-05 06:36N 33°51' E 134°41'1 5.6
2018-Jan-05 06:30N 33°52' E 134°41'4 6.7
2018-Jan-05 05:53N 33°53' E 134°46'2 4.9
2018-Jan-05 05:25N 33°53' E 134°49'1 2.3
2018-Jan-05 05:00N 33°53' E 134°50'3 6.8
2018-Jan-05 04:30N 33°50' E 134°52'510.2
2018-Jan-05 03:58N 33°44' E 134°51'  
Track history (hours):
 
Tides and Currents Weather Stations Pressure Air Temp Water Temp Dewpoint Dewpoint Depression Visibility Wind Speed Wind Dir Waves Ship Positions

Rosco Poplar

Last reported at 2018-Jan-08 04:21 UTC. Time now 2018-Jan-22 22:24 UTC.
Position N 33°39' E 134°55'.
Warning: this ship's position is 14 days out of date.

Length 225 m; draft 7.2 m.

Type: Ship. MMSI: 477743200.

Date/timePositionNaut miles runAvg speedWind from/ knotsBaromVisibWave heightAir tempDewpointWater temp
2018-Jan-08 04:21N 33°39' E 134°55'411.7
2018-Jan-08 04:00N 33°43' E 134°54'611.1
2018-Jan-08 03:30N 33°48' E 134°52'510.4
2018-Jan-08 03:00N 33°53' E 134°49'4 8.5
2018-Jan-08 02:30N 33°53' E 134°44'3 6.3
2018-Jan-08 02:00N 33°52' E 134°41'1 1.7
2018-Jan-08 01:29N 33°52' E 134°40'0 0.0
2018-Jan-08 00:08N 33°52' E 134°40'0 0.3
2018-Jan-07 23:56N 33°52' E 134°40'0 0.1
2018-Jan-07 23:26N 33°52' E 134°40'0 0.0
2018-Jan-07 20:02N 33°52' E 134°40'0 0.6
2018-Jan-07 19:56N 33°52' E 134°40'0 0.0
2018-Jan-07 19:26N 33°52' E 134°40'0 0.0
2018-Jan-07 18:56N 33°52' E 134°40'0 0.1
2018-Jan-07 18:14N 33°52' E 134°40'0 0.1
2018-Jan-07 17:56N 33°52' E 134°40'0 0.0
2018-Jan-07 04:32N 33°52' E 134°40'0 0.1
2018-Jan-07 04:26N 33°52' E 134°40'0 0.1
2018-Jan-07 03:50N 33°52' E 134°40'0 0.0
2018-Jan-07 02:26N 33°52' E 134°40'0 0.0
2018-Jan-07 01:50N 33°52' E 134°40'0 0.0
2018-Jan-07 01:20N 33°52' E 134°40'0 0.0
2018-Jan-07 00:14N 33°52' E 134°40'0 0.0
2018-Jan-06 23:50N 33°52' E 134°40'0 0.0
2018-Jan-06 23:26N 33°52' E 134°40'0 0.0
2018-Jan-06 22:56N 33°52' E 134°40'0 0.0
2018-Jan-06 22:20N 33°52' E 134°40'0 0.0
2018-Jan-06 21:56N 33°52' E 134°40'0 0.0
2018-Jan-06 21:08N 33°52' E 134°40'0 0.1
2018-Jan-06 20:56N 33°52' E 134°40'0 0.1
2018-Jan-06 20:26N 33°52' E 134°40'0 0.1
2018-Jan-06 19:56N 33°52' E 134°40'0 0.1
2018-Jan-06 19:20N 33°52' E 134°40'0 0.0
2018-Jan-06 18:56N 33°52' E 134°40'0 0.1
2018-Jan-06 18:14N 33°52' E 134°40'0 0.1
2018-Jan-06 17:44N 33°52' E 134°40'0 0.1
2018-Jan-06 17:20N 33°52' E 134°40'0 0.0
2018-Jan-06 16:50N 33°52' E 134°40'0 0.0
2018-Jan-06 16:26N 33°52' E 134°40'0 0.1
2018-Jan-06 15:56N 33°52' E 134°40'0 0.1
2018-Jan-06 15:14N 33°52' E 134°40'0 0.1
2018-Jan-06 14:44N 33°52' E 134°40'0 0.2
2018-Jan-06 14:26N 33°52' E 134°40'0 0.0
2018-Jan-06 08:44N 33°52' E 134°40'0 0.0
2018-Jan-06 08:20N 33°52' E 134°40'0 0.0
2018-Jan-06 07:50N 33°52' E 134°40'1 0.0
2018-Jan-05 06:36N 33°51' E 134°41'1 5.6
2018-Jan-05 06:30N 33°52' E 134°41'4 6.7
2018-Jan-05 05:53N 33°53' E 134°46'2 4.9
2018-Jan-05 05:25N 33°53' E 134°49'1 2.3
2018-Jan-05 05:00N 33°53' E 134°50'3 6.8
2018-Jan-05 04:30N 33°50' E 134°52'510.2
2018-Jan-05 03:58N 33°44' E 134°51'  

Dump ship's entire track history